Time;durP1;ratioP1;P1;durP2;ratioP2;P2;SDS_P1;SDS_P2;PMS_P1;PMS_P2;Temp;Humidity;BMP_temperature;BMP_pressure;BME280_temperature;BME280_humidity;BME280_pressure;Samples;Min_cycle;Max_cycle;Signal;HPM_P1;HPM_P2
2022/06/24 00:02:08;;;;;;;7.63;5.10;;;21.90;99.90;;;;;;4996101;28;20182;-78
2022/06/24 00:04:34;;;;;;;7.30;5.10;;;21.90;99.90;;;;;;4995870;28;20193;-78
2022/06/24 00:06:59;;;;;;;8.47;5.93;;;21.80;99.90;;;;;;4995576;28;20538;-78
2022/06/24 00:09:28;;;;;;;9.73;5.50;;;21.80;99.90;;;;;;4994731;28;20185;-78
2022/06/24 00:12:01;;;;;;;11.77;4.93;;;21.70;99.90;;;;;;4995715;28;20178;-78
2022/06/24 00:14:26;;;;;;;10.80;5.40;;;21.60;99.90;;;;;;4994156;28;20214;-78
2022/06/24 00:17:04;;;;;;;8.83;5.80;;;21.60;99.90;;;;;;4996172;28;20557;-78
2022/06/24 00:19:32;;;;;;;9.47;5.63;;;21.60;99.90;;;;;;4995354;28;20157;-77
2022/06/24 00:22:14;;;;;;;10.33;5.23;;;21.60;99.90;;;;;;4995941;28;20251;-78
2022/06/24 00:24:40;;;;;;;9.43;5.13;;;21.60;99.90;;;;;;4995746;28;20204;-79
2022/06/24 00:27:22;;;;;;;7.47;4.70;;;21.60;99.90;;;;;;4995563;28;20180;-78
2022/06/24 00:29:49;;;;;;;8.27;5.10;;;21.60;99.90;;;;;;4995373;28;20186;-78
2022/06/24 00:32:15;;;;;;;8.43;5.37;;;21.50;99.90;;;;;;4994145;28;20674;-78
2022/06/24 00:34:42;;;;;;;8.20;5.50;;;21.60;99.90;;;;;;4995846;28;20292;-78
2022/06/24 00:37:29;;;;;;;10.83;6.40;;;21.50;99.90;;;;;;4996194;28;20255;-78
2022/06/24 00:40:01;;;;;;;7.03;5.40;;;21.60;99.90;;;;;;4995845;28;20183;-78
2022/06/24 00:42:29;;;;;;;10.30;5.87;;;21.50;99.90;;;;;;4998044;28;20158;-79
2022/06/24 00:45:08;;;;;;;13.30;6.67;;;21.50;99.90;;;;;;4997387;28;20280;-79
2022/06/24 00:47:37;;;;;;;14.63;7.17;;;21.50;99.90;;;;;;4996809;28;20162;-78
2022/06/24 00:50:15;;;;;;;13.53;7.07;;;21.50;99.90;;;;;;4995400;28;20186;-79
2022/06/24 00:52:41;;;;;;;15.50;7.20;;;21.50;99.90;;;;;;4996842;28;20165;-79
2022/06/24 00:55:07;;;;;;;18.53;8.73;;;21.50;99.90;;;;;;4995765;28;20229;-78
2022/06/24 00:57:36;;;;;;;18.33;8.27;;;21.40;99.90;;;;;;4996253;28;20568;-79
2022/06/24 01:00:05;;;;;;;19.20;8.30;;;21.50;99.90;;;;;;4995637;28;20192;-79
2022/06/24 01:02:32;;;;;;;15.97;8.87;;;21.40;99.90;;;;;;4994148;28;20659;-78
2022/06/24 01:05:05;;;;;;;16.47;9.07;;;21.40;99.90;;;;;;4995719;28;20194;-78
2022/06/24 01:07:31;;;;;;;18.03;9.77;;;21.30;99.90;;;;;;4996733;28;20182;-78
2022/06/24 01:09:57;;;;;;;15.57;8.93;;;21.30;99.90;;;;;;4998537;28;20176;-79
2022/06/24 01:12:23;;;;;;;16.37;8.33;;;21.20;99.90;;;;;;4997420;28;20178;-78
2022/06/24 01:14:49;;;;;;;13.70;8.27;;;21.10;99.90;;;;;;4997477;28;20557;-79
2022/06/24 01:17:14;;;;;;;17.30;8.40;;;21.20;99.90;;;;;;4997122;28;20198;-80
2022/06/24 01:19:40;;;;;;;12.43;7.93;;;21.20;99.90;;;;;;5002030;28;20174;-78
2022/06/24 01:22:05;;;;;;;11.37;7.30;;;21.20;99.90;;;;;;5004083;28;20173;-78
2022/06/24 01:24:31;;;;;;;12.20;6.33;;;21.20;99.90;;;;;;5004267;28;20192;-79
2022/06/24 01:26:58;;;;;;;14.00;6.90;;;21.20;99.90;;;;;;5004468;28;20173;-79
2022/06/24 01:29:25;;;;;;;12.30;6.00;;;21.00;99.90;;;;;;5003998;28;20216;-79
2022/06/24 01:31:53;;;;;;;13.53;6.60;;;21.00;99.90;;;;;;5002627;28;20185;-79
2022/06/24 01:34:20;;;;;;;14.10;6.07;;;20.90;99.90;;;;;;5003983;28;20240;-78
2022/06/24 01:36:46;;;;;;;9.10;5.93;;;20.90;99.90;;;;;;5001636;28;20316;-79
2022/06/24 01:39:12;;;;;;;8.40;5.77;;;20.80;99.90;;;;;;5002535;28;20186;-79
2022/06/24 01:41:38;;;;;;;11.50;5.63;;;20.90;99.90;;;;;;5001915;28;20177;-79
2022/06/24 01:44:04;;;;;;;12.60;6.63;;;20.90;99.90;;;;;;5002733;28;20204;-79
2022/06/24 01:46:30;;;;;;;12.27;6.00;;;20.90;99.90;;;;;;5003877;28;20178;-79
2022/06/24 01:48:55;;;;;;;10.20;5.30;;;20.90;99.90;;;;;;5002391;28;20232;-79
2022/06/24 01:51:23;;;;;;;10.97;6.03;;;20.90;99.90;;;;;;5002447;28;20193;-78
2022/06/24 01:53:49;;;;;;;9.47;5.50;;;20.90;99.90;;;;;;5001840;28;20208;-78
2022/06/24 01:56:14;;;;;;;6.93;5.37;;;20.90;99.90;;;;;;5003253;28;20213;-79
2022/06/24 01:58:40;;;;;;;10.40;5.97;;;20.90;99.90;;;;;;5003434;28;20224;-78
2022/06/24 02:01:06;;;;;;;7.73;5.27;;;20.90;99.90;;;;;;5002915;28;20668;-79
2022/06/24 02:03:34;;;;;;;10.10;5.27;;;20.80;99.90;;;;;;5002895;28;20200;-79
2022/06/24 02:06:03;;;;;;;9.57;6.13;;;20.80;99.90;;;;;;5003066;28;20170;-78
2022/06/24 02:08:29;;;;;;;11.57;5.30;;;20.80;99.90;;;;;;5002560;28;20170;-79
2022/06/24 02:13:40;;;;;;;6.67;4.87;;;20.80;99.90;;;;;;5001646;28;20208;-79
2022/06/24 02:16:07;;;;;;;7.53;5.40;;;20.80;99.90;;;;;;5004688;28;20582;-79
2022/06/24 02:18:32;;;;;;;9.67;5.57;;;20.80;99.90;;;;;;5000849;28;20264;-78
2022/06/24 02:20:59;;;;;;;8.87;5.63;;;20.80;99.90;;;;;;5001012;28;20201;-79
2022/06/24 02:23:26;;;;;;;9.57;5.20;;;20.90;99.90;;;;;;5001302;28;20671;-78
2022/06/24 02:25:53;;;;;;;9.40;5.33;;;20.90;99.90;;;;;;5000918;28;20242;-78
2022/06/24 02:28:18;;;;;;;8.73;5.03;;;20.90;99.90;;;;;;5001072;28;20166;-78
2022/06/24 02:30:47;;;;;;;10.90;4.40;;;20.80;99.90;;;;;;4999089;28;20178;-78
2022/06/24 02:33:13;;;;;;;10.93;4.40;;;20.80;99.90;;;;;;4998004;28;20737;-78
2022/06/24 02:35:40;;;;;;;10.23;5.20;;;20.80;99.90;;;;;;4997664;28;20205;-78
2022/06/24 02:38:06;;;;;;;8.30;4.30;;;20.90;99.90;;;;;;4996533;28;20205;-79
2022/06/24 02:40:47;;;;;;;7.27;3.77;;;20.80;99.90;;;;;;4996929;28;20607;-79
2022/06/24 02:43:24;;;;;;;7.47;4.43;;;20.70;99.90;;;;;;4998146;28;20158;-79
2022/06/24 02:45:51;;;;;;;7.20;4.60;;;20.70;99.90;;;;;;4997844;28;20651;-78
2022/06/24 02:48:19;;;;;;;9.40;4.47;;;20.70;99.90;;;;;;4997581;28;20557;-78
2022/06/24 02:50:46;;;;;;;7.53;3.93;;;20.70;99.90;;;;;;4995828;28;20192;-78
2022/06/24 02:53:14;;;;;;;7.13;4.37;;;20.70;99.90;;;;;;4996379;28;20722;-78
2022/06/24 02:55:41;;;;;;;8.83;4.30;;;20.70;99.90;;;;;;4997889;28;20193;-79
2022/06/24 02:58:07;;;;;;;7.53;4.33;;;20.60;99.90;;;;;;4997852;28;20193;-78
2022/06/24 03:00:34;;;;;;;7.03;4.47;;;20.70;99.90;;;;;;4996353;28;20181;-78
2022/06/24 03:02:59;;;;;;;9.77;4.37;;;20.60;99.90;;;;;;4997796;28;20181;-78
2022/06/24 03:05:25;;;;;;;5.40;4.10;;;20.60;99.90;;;;;;4997911;28;20198;-79
2022/06/24 03:07:51;;;;;;;7.30;4.50;;;20.60;99.90;;;;;;4997688;28;20722;-79
2022/06/24 03:10:17;;;;;;;5.83;4.20;;;20.60;99.90;;;;;;4997246;28;20174;-80
2022/06/24 03:12:43;;;;;;;10.37;4.77;;;20.70;99.90;;;;;;4997957;28;20174;-79
2022/06/24 03:15:09;;;;;;;7.77;4.23;;;20.60;99.90;;;;;;4996141;28;20213;-79
2022/06/24 03:17:35;;;;;;;8.07;4.47;;;20.60;99.90;;;;;;4997570;28;20198;-79
2022/06/24 03:20:02;;;;;;;4.77;4.23;;;20.60;99.90;;;;;;4997345;28;20224;-80
2022/06/24 03:22:27;;;;;;;6.13;4.30;;;20.60;99.90;;;;;;4997845;28;20512;-79
2022/06/24 03:24:53;;;;;;;6.70;4.57;;;20.70;99.90;;;;;;4996042;28;20197;-80
2022/06/24 03:27:18;;;;;;;8.07;4.47;;;20.60;99.90;;;;;;5001456;28;20185;-79
2022/06/24 03:29:44;;;;;;;5.23;4.27;;;20.60;99.90;;;;;;4998233;28;20611;-78
2022/06/24 03:32:09;;;;;;;5.17;4.27;;;20.60;99.90;;;;;;4997574;28;20767;-79
2022/06/24 03:34:35;;;;;;;6.23;4.70;;;20.60;99.90;;;;;;4996171;28;20583;-79
2022/06/24 03:37:01;;;;;;;7.07;4.50;;;20.60;99.90;;;;;;5002607;28;20208;-79
2022/06/24 03:39:26;;;;;;;5.43;4.30;;;20.60;99.90;;;;;;5000865;28;20224;-79
2022/06/24 03:41:52;;;;;;;6.33;4.53;;;20.60;99.90;;;;;;5001928;28;20178;-79
2022/06/24 03:44:17;;;;;;;6.47;4.40;;;20.60;99.90;;;;;;4996689;28;20194;-79
2022/06/24 03:46:43;;;;;;;6.57;4.20;;;20.60;99.90;;;;;;4995445;28;20615;-79
2022/06/24 03:49:08;;;;;;;6.23;3.73;;;20.50;99.90;;;;;;4997329;28;20273;-79
2022/06/24 03:51:35;;;;;;;8.43;4.00;;;20.50;99.90;;;;;;4997264;28;20178;-79
2022/06/24 03:54:00;;;;;;;8.10;4.07;;;20.50;99.90;;;;;;4996697;28;20198;-78
2022/06/24 03:56:26;;;;;;;8.00;4.53;;;20.50;99.90;;;;;;4995585;28;20584;-79
2022/06/24 03:58:52;;;;;;;8.00;4.40;;;20.50;99.90;;;;;;4997089;28;20169;-79
2022/06/24 04:01:17;;;;;;;7.03;4.27;;;20.40;99.90;;;;;;4995613;28;20178;-80
2022/06/24 04:03:43;;;;;;;7.43;4.47;;;20.40;99.90;;;;;;4996692;28;20264;-79
2022/06/24 04:06:08;;;;;;;5.70;4.27;;;20.40;99.90;;;;;;4996830;28;20182;-79
2022/06/24 04:08:34;;;;;;;8.37;4.47;;;20.40;99.90;;;;;;4996655;28;20590;-80
2022/06/24 04:11:08;;;;;;;6.80;4.07;;;20.40;99.90;;;;;;4997077;28;20202;-80
2022/06/24 04:13:34;;;;;;;6.30;4.00;;;20.30;99.90;;;;;;4996621;28;20531;-80
2022/06/24 04:15:59;;;;;;;9.40;4.27;;;20.30;99.90;;;;;;4995599;28;20157;-80
2022/06/24 04:18:25;;;;;;;5.50;4.67;;;20.30;99.90;;;;;;4996680;28;20178;-79
2022/06/24 04:20:50;;;;;;;5.87;4.50;;;20.30;99.90;;;;;;4996347;28;20197;-79
2022/06/24 04:23:16;;;;;;;7.73;4.73;;;20.30;99.90;;;;;;4996602;28;20173;-79
2022/06/24 04:25:41;;;;;;;5.53;4.47;;;20.30;99.90;;;;;;4997004;28;20201;-80
2022/06/24 04:28:07;;;;;;;5.63;4.83;;;20.30;99.90;;;;;;4995363;28;20184;-80
2022/06/24 04:30:32;;;;;;;7.73;5.37;;;20.30;99.90;;;;;;4997507;28;20170;-80
2022/06/24 04:32:58;;;;;;;7.57;4.97;;;20.20;99.90;;;;;;4997605;28;20185;-80
2022/06/24 04:35:23;;;;;;;5.37;4.43;;;20.10;99.90;;;;;;4995956;28;20574;-81
2022/06/24 04:37:49;;;;;;;7.17;4.10;;;20.10;99.90;;;;;;4995588;28;20691;-80
2022/06/24 04:40:15;;;;;;;6.27;3.77;;;20.10;99.90;;;;;;4994764;28;20551;-79
2022/06/24 04:42:40;;;;;;;2.33;2.00;;;20.10;99.90;;;;;;4996361;28;20170;-78
2022/06/24 04:45:07;;;;;;;4.37;2.37;;;19.90;99.90;;;;;;4994059;28;20197;-78
2022/06/24 04:47:32;;;;;;;5.43;2.13;;;19.80;99.90;;;;;;4993728;28;20187;-78
2022/06/24 04:49:58;;;;;;;4.83;2.07;;;19.80;99.90;;;;;;4994646;28;20201;-77
2022/06/24 04:52:24;;;;;;;4.13;2.20;;;19.70;99.90;;;;;;4994362;28;20232;-78
2022/06/24 04:54:50;;;;;;;3.83;1.83;;;19.80;99.90;;;;;;4993589;28;20630;-78
2022/06/24 04:57:16;;;;;;;3.73;2.23;;;19.70;99.90;;;;;;4994218;28;20212;-78
2022/06/24 04:59:41;;;;;;;2.40;2.20;;;19.80;99.90;;;;;;4994332;28;20185;-78
2022/06/24 05:02:07;;;;;;;7.80;2.40;;;19.90;99.90;;;;;;4994604;28;20236;-78
2022/06/24 05:04:34;;;;;;;2.90;2.20;;;20.00;99.90;;;;;;4994142;28;20209;-78
2022/06/24 05:06:59;;;;;;;2.27;1.90;;;19.90;99.90;;;;;;4994295;28;20181;-78
2022/06/24 05:09:25;;;;;;;4.17;2.00;;;19.90;99.90;;;;;;4992934;28;20174;-77
2022/06/24 05:11:50;;;;;;;3.93;2.43;;;19.90;99.90;;;;;;4995645;28;20630;-77
2022/06/24 05:14:17;;;;;;;5.10;2.60;;;20.00;99.90;;;;;;4994033;28;20235;-77
2022/06/24 05:16:43;;;;;;;2.50;2.17;;;20.00;99.90;;;;;;4994278;28;20290;-77
2022/06/24 05:19:09;;;;;;;2.00;1.80;;;19.90;99.90;;;;;;4993025;28;20300;-80
2022/06/24 05:21:35;;;;;;;3.67;2.17;;;19.90;99.90;;;;;;4995028;28;20166;-78
2022/06/24 05:24:00;;;;;;;2.73;2.10;;;19.80;99.90;;;;;;4994407;28;20204;-79
2022/06/24 05:26:26;;;;;;;3.17;2.43;;;19.80;99.90;;;;;;4995620;28;20533;-79
2022/06/24 05:28:51;;;;;;;4.13;2.43;;;19.80;99.90;;;;;;4997953;28;20181;-78
2022/06/24 05:31:17;;;;;;;3.10;2.60;;;19.80;99.90;;;;;;4994713;28;20297;-79
2022/06/24 05:33:42;;;;;;;2.53;2.10;;;19.80;99.90;;;;;;4995738;28;20197;-78
2022/06/24 05:36:08;;;;;;;2.50;2.30;;;19.80;99.90;;;;;;4994356;28;20228;-78
2022/06/24 05:38:34;;;;;;;3.53;2.63;;;19.90;99.90;;;;;;4994518;28;20162;-78
2022/06/24 05:40:59;;;;;;;3.50;2.40;;;19.90;99.90;;;;;;4994042;28;20173;-78
2022/06/24 05:43:25;;;;;;;4.83;2.47;;;19.90;99.90;;;;;;4993153;28;20173;-78
2022/06/24 05:45:50;;;;;;;2.50;2.30;;;19.90;99.90;;;;;;4993300;28;20232;-79
2022/06/24 05:48:16;;;;;;;4.47;2.40;;;20.00;99.90;;;;;;4993217;28;20182;-79
2022/06/24 05:50:42;;;;;;;2.50;2.30;;;20.00;99.90;;;;;;4994880;28;20663;-79
2022/06/24 05:55:58;;;;;;;5.40;2.60;;;20.10;99.90;;;;;;4993943;28;20165;-78
2022/06/24 05:58:25;;;;;;;3.10;2.60;;;20.10;99.90;;;;;;4993808;28;20186;-78
2022/06/24 06:00:51;;;;;;;4.73;3.23;;;20.10;99.90;;;;;;4992799;28;20729;-79
2022/06/24 06:03:17;;;;;;;5.27;3.83;;;20.10;99.90;;;;;;5007746;28;20162;-79
2022/06/24 06:05:42;;;;;;;8.10;4.10;;;20.00;99.90;;;;;;5000911;28;20252;-79
2022/06/24 06:08:08;;;;;;;8.67;3.87;;;20.10;99.90;;;;;;4998800;28;20174;-79
2022/06/24 06:10:35;;;;;;;7.60;4.43;;;20.10;99.90;;;;;;4996912;28;20632;-79
2022/06/24 06:13:01;;;;;;;11.37;3.80;;;20.20;99.90;;;;;;4998694;28;20177;-80
2022/06/24 06:15:29;;;;;;;7.50;4.37;;;20.20;99.90;;;;;;4997054;28;20217;-79
2022/06/24 06:17:54;;;;;;;8.77;4.47;;;20.20;99.90;;;;;;4997023;28;20205;-79
2022/06/24 06:20:20;;;;;;;13.60;5.37;;;20.20;99.90;;;;;;4996994;28;20178;-79
2022/06/24 06:22:45;;;;;;;9.13;5.27;;;20.10;99.90;;;;;;4998092;28;20177;-79
2022/06/24 06:25:14;;;;;;;7.23;3.87;;;20.20;99.90;;;;;;4999266;28;20264;-80
2022/06/24 06:27:40;;;;;;;4.90;3.23;;;20.20;99.90;;;;;;4998952;28;20181;-79
2022/06/24 06:30:06;;;;;;;5.53;3.10;;;20.10;99.90;;;;;;4996918;28;20191;-79
2022/06/24 06:32:31;;;;;;;5.40;3.00;;;20.00;99.90;;;;;;4998988;28;20182;-78
2022/06/24 06:34:57;;;;;;;5.93;3.17;;;20.00;99.90;;;;;;4997747;28;20555;-81
2022/06/24 06:37:22;;;;;;;6.43;3.00;;;20.00;99.90;;;;;;4998767;28;20610;-80
2022/06/24 06:39:48;;;;;;;2.73;2.10;;;19.90;99.90;;;;;;4999011;28;20169;-79
2022/06/24 06:42:14;;;;;;;7.03;2.47;;;19.90;99.90;;;;;;4997254;28;20181;-79
2022/06/24 06:44:39;;;;;;;2.53;2.13;;;19.70;99.90;;;;;;4996898;28;20190;-80
2022/06/24 06:47:05;;;;;;;5.40;2.60;;;19.70;99.90;;;;;;4998517;28;20181;-80
2022/06/24 06:49:32;;;;;;;6.17;2.27;;;19.70;99.90;;;;;;4998495;28;20182;-79
2022/06/24 06:52:02;;;;;;;10.20;2.43;;;19.70;99.90;;;;;;5000042;28;20633;-79
2022/06/24 06:54:27;;;;;;;3.43;2.33;;;19.60;99.90;;;;;;5009735;28;20225;-80
2022/06/24 06:56:53;;;;;;;4.23;2.20;;;19.60;99.90;;;;;;4996752;28;20275;-79
2022/06/24 06:59:18;;;;;;;4.00;2.50;;;19.60;99.90;;;;;;4997856;28;20640;-79
2022/06/24 07:01:44;;;;;;;2.93;2.13;;;19.40;99.90;;;;;;4996088;28;20292;-79
2022/06/24 07:04:09;;;;;;;2.83;1.57;;;19.40;99.90;;;;;;4997654;28;20185;-80
2022/06/24 07:06:35;;;;;;;5.07;1.97;;;19.30;99.90;;;;;;4997600;28;20173;-79
2022/06/24 07:09:01;;;;;;;2.27;1.83;;;19.20;99.90;;;;;;4997681;28;20184;-79
2022/06/24 07:11:28;;;;;;;3.37;2.00;;;19.20;99.90;;;;;;4995443;28;20212;-78
2022/06/24 07:13:54;;;;;;;4.13;2.10;;;19.10;99.90;;;;;;4996219;28;20209;-78
2022/06/24 07:16:20;;;;;;;5.83;2.40;;;19.10;99.90;;;;;;4995978;28;20181;-78
2022/06/24 07:18:46;;;;;;;5.40;2.53;;;19.00;99.90;;;;;;4994664;28;20603;-77
2022/06/24 07:21:13;;;;;;;3.40;2.33;;;19.10;99.90;;;;;;4996209;28;20254;-77
2022/06/24 07:23:39;;;;;;;4.37;2.47;;;19.00;99.90;;;;;;4996136;28;20166;-78
2022/06/24 07:26:05;;;;;;;3.67;2.70;;;19.00;99.90;;;;;;4994808;28;20549;-77
2022/06/24 07:28:31;;;;;;;3.93;2.57;;;19.10;99.90;;;;;;4996429;28;20174;-77
2022/06/24 07:30:56;;;;;;;5.20;2.70;;;19.20;99.90;;;;;;4995013;28;20592;-79
2022/06/24 07:33:23;;;;;;;3.73;2.00;;;19.20;99.90;;;;;;4996394;28;20177;-79
2022/06/24 07:35:49;;;;;;;4.20;2.03;;;19.20;99.90;;;;;;4996987;28;20174;-79
2022/06/24 07:38:15;;;;;;;4.97;1.97;;;19.20;99.90;;;;;;4995470;28;20205;-79
2022/06/24 07:40:40;;;;;;;6.80;1.93;;;19.10;99.90;;;;;;4996467;28;20174;-79
2022/06/24 07:43:06;;;;;;;3.73;1.90;;;19.00;99.90;;;;;;4995320;28;20524;-79
2022/06/24 07:45:32;;;;;;;4.23;1.70;;;18.90;99.90;;;;;;4994926;28;20204;-79
2022/06/24 07:47:58;;;;;;;4.80;2.20;;;18.90;99.90;;;;;;4994965;28;20181;-78
2022/06/24 07:50:24;;;;;;;2.27;1.93;;;18.80;99.90;;;;;;4996178;28;20178;-79
2022/06/24 07:52:50;;;;;;;4.07;2.33;;;18.90;99.90;;;;;;4996211;28;20169;-77
2022/06/24 07:57:59;;;;;;;3.97;2.20;;;18.80;99.90;;;;;;4995875;28;20317;-79
2022/06/24 08:00:25;;;;;;;5.67;2.37;;;18.80;99.90;;;;;;4994456;28;20178;-79
2022/06/24 08:02:51;;;;;;;4.50;2.53;;;18.90;99.90;;;;;;4994627;28;20182;-79
2022/06/24 08:05:16;;;;;;;5.00;2.37;;;18.90;99.90;;;;;;4995851;28;20190;-79
2022/06/24 08:07:43;;;;;;;5.43;2.13;;;18.90;99.90;;;;;;4994437;28;20184;-79
2022/06/24 08:10:10;;;;;;;8.60;2.63;;;19.00;99.90;;;;;;4994725;28;20185;-78
2022/06/24 08:12:35;;;;;;;3.93;2.27;;;19.00;99.90;;;;;;4995797;28;20174;-79
2022/06/24 08:15:01;;;;;;;4.80;2.37;;;19.10;99.90;;;;;;4994062;28;20223;-79
2022/06/24 08:17:27;;;;;;;4.00;2.73;;;19.10;99.90;;;;;;4995968;28;20300;-79
2022/06/24 08:19:53;;;;;;;5.03;3.03;;;19.10;99.90;;;;;;4997558;28;20220;-79
2022/06/24 08:22:20;;;;;;;7.23;3.40;;;19.00;99.90;;;;;;4995124;28;20301;-79
2022/06/24 08:24:46;;;;;;;6.73;3.70;;;19.00;99.90;;;;;;4996732;28;20193;-79
2022/06/24 08:27:12;;;;;;;5.67;3.30;;;19.00;99.90;;;;;;5001394;28;20181;-79
2022/06/24 08:29:38;;;;;;;4.63;3.33;;;19.00;99.90;;;;;;5011999;28;20174;-79
2022/06/24 08:32:04;;;;;;;5.97;3.40;;;19.10;99.90;;;;;;4995960;28;20272;-79
2022/06/24 08:34:30;;;;;;;7.07;3.27;;;19.10;99.90;;;;;;4996118;28;20617;-79
2022/06/24 08:36:55;;;;;;;5.90;3.10;;;19.10;99.90;;;;;;4999015;28;20204;-79
2022/06/24 08:39:21;;;;;;;5.37;2.87;;;19.10;99.90;;;;;;4995871;28;20305;-79
2022/06/24 08:41:50;;;;;;;6.00;3.07;;;19.10;99.90;;;;;;4994084;28;20180;-79
2022/06/24 08:44:16;;;;;;;8.00;3.73;;;19.30;99.90;;;;;;4994544;28;20193;-79
2022/06/24 08:46:42;;;;;;;6.97;3.40;;;19.20;99.90;;;;;;4995349;28;20228;-79
2022/06/24 08:49:08;;;;;;;4.87;3.63;;;19.10;99.90;;;;;;4994308;28;20651;-79
2022/06/24 08:51:36;;;;;;;6.60;4.13;;;19.30;99.90;;;;;;4995264;28;20170;-79
2022/06/24 08:54:03;;;;;;;6.93;3.87;;;19.30;99.90;;;;;;4995966;28;20197;-80
2022/06/24 08:56:29;;;;;;;5.07;3.53;;;19.30;99.90;;;;;;4995838;28;20200;-79
2022/06/24 08:58:55;;;;;;;7.13;4.20;;;19.40;99.90;;;;;;4993847;28;20616;-79
2022/06/24 09:01:21;;;;;;;6.87;4.37;;;19.40;99.90;;;;;;4995616;28;20170;-80
2022/06/24 09:03:48;;;;;;;5.37;4.37;;;19.40;99.90;;;;;;4995181;28;20570;-79
2022/06/24 09:06:15;;;;;;;6.57;4.90;;;19.50;99.90;;;;;;4995318;28;20170;-79
2022/06/24 09:08:46;;;;;;;8.53;4.43;;;19.50;99.90;;;;;;4994152;28;20188;-79
2022/06/24 09:11:11;;;;;;;6.83;4.67;;;19.50;99.90;;;;;;4993686;28;20609;-79
2022/06/24 09:13:45;;;;;;;10.70;4.77;;;19.50;99.90;;;;;;4994794;28;20293;-80
2022/06/24 09:16:12;;;;;;;10.17;4.17;;;19.50;99.90;;;;;;4995576;28;20158;-79
2022/06/24 09:18:38;;;;;;;6.60;4.33;;;19.50;99.90;;;;;;4994495;28;20181;-80
2022/06/24 09:21:04;;;;;;;7.67;4.00;;;19.50;99.90;;;;;;4992966;28;20180;-79
2022/06/24 09:23:29;;;;;;;7.33;4.07;;;19.50;99.90;;;;;;4994515;28;20249;-78
2022/06/24 09:25:58;;;;;;;6.07;3.77;;;19.50;99.90;;;;;;4993021;28;20173;-78
2022/06/24 09:28:29;;;;;;;10.97;4.60;;;19.50;99.90;;;;;;4994571;28;20174;-78
2022/06/24 09:31:08;;;;;;;8.07;4.67;;;19.50;99.90;;;;;;4994225;28;20176;-78
2022/06/24 09:33:38;;;;;;;6.50;4.20;;;19.60;99.90;;;;;;4994070;28;20173;-78
2022/06/24 09:36:06;;;;;;;7.47;4.20;;;19.60;99.90;;;;;;4993697;28;20254;-78
2022/06/24 09:38:35;;;;;;;7.33;4.77;;;19.50;99.90;;;;;;4993525;28;20635;-77
2022/06/24 09:41:04;;;;;;;5.40;4.20;;;19.70;99.90;;;;;;4997729;28;20193;-80
2022/06/24 09:43:31;;;;;;;8.00;5.37;;;19.50;99.90;;;;;;4999303;28;20166;-79
2022/06/24 09:45:57;;;;;;;6.83;5.40;;;19.60;99.90;;;;;;4997546;28;20177;-80
2022/06/24 09:48:29;;;;;;;11.50;6.20;;;19.70;99.90;;;;;;4998720;28;20228;-80
2022/06/24 09:50:56;;;;;;;8.27;5.40;;;19.80;99.90;;;;;;4998960;28;20201;-79
2022/06/24 09:53:25;;;;;;;9.07;6.87;;;19.90;99.90;;;;;;4999003;28;20519;-81
2022/06/24 09:55:52;;;;;;;9.83;6.97;;;20.10;99.90;;;;;;4999188;28;20173;-79
2022/06/24 09:58:18;;;;;;;9.30;6.87;;;20.20;99.90;;;;;;4997626;28;20201;-80
2022/06/24 10:00:45;;;;;;;7.43;6.23;;;20.30;99.90;;;;;;4998895;28;20199;-79
2022/06/24 10:03:12;;;;;;;9.17;6.77;;;20.40;99.90;;;;;;4999211;28;20194;-80
2022/06/24 10:05:41;;;;;;;8.40;7.50;;;20.40;99.90;;;;;;4998669;28;20215;-79
2022/06/24 10:08:11;;;;;;;8.97;7.20;;;20.60;99.90;;;;;;4999115;28;20602;-79
2022/06/24 10:10:41;;;;;;;8.97;6.47;;;20.70;99.90;;;;;;5002162;28;20554;-80
2022/06/24 10:13:11;;;;;;;9.60;5.90;;;20.80;99.90;;;;;;4999811;28;20273;-80
2022/06/24 10:15:38;;;;;;;6.17;5.57;;;20.70;99.90;;;;;;5000074;28;20201;-79
2022/06/24 10:18:09;;;;;;;7.93;5.87;;;20.80;99.90;;;;;;5001491;28;20189;-79
2022/06/24 10:20:35;;;;;;;6.97;5.43;;;20.80;99.90;;;;;;5003319;28;20181;-78
2022/06/24 10:23:01;;;;;;;5.63;4.80;;;20.90;99.90;;;;;;4998585;28;20166;-79
2022/06/24 10:25:50;;;;;;;5.10;4.03;;;21.00;99.90;;;;;;4996901;28;20206;-78
2022/06/24 10:28:16;;;;;;;5.70;4.23;;;21.20;99.90;;;;;;4996338;28;20702;-78
2022/06/24 10:30:57;;;;;;;4.87;3.90;;;21.30;99.90;;;;;;4997683;28;20173;-78
2022/06/24 10:33:26;;;;;;;8.03;4.47;;;21.40;99.90;;;;;;4998003;28;20169;-77
2022/06/24 10:36:04;;;;;;;5.03;3.30;;;21.40;99.90;;;;;;4997507;28;20178;-78
2022/06/24 10:38:40;;;;;;;5.63;3.33;;;21.50;99.90;;;;;;4997789;28;20201;-78
2022/06/24 10:41:10;;;;;;;5.93;3.50;;;21.70;99.90;;;;;;4997152;28;20170;-76
2022/06/24 10:43:41;;;;;;;4.90;4.03;;;21.70;99.90;;;;;;4995096;28;20197;-77
2022/06/24 10:46:12;;;;;;;4.17;3.27;;;21.70;99.90;;;;;;4996311;28;20666;-77
2022/06/24 10:48:44;;;;;;;6.97;3.40;;;21.80;99.90;;;;;;4995045;28;20620;-78
2022/06/24 10:51:14;;;;;;;3.70;3.30;;;21.90;99.90;;;;;;4994416;28;20197;-77
2022/06/24 10:54:01;;;;;;;4.40;3.67;;;22.00;99.90;;;;;;4996804;28;20173;-78
2022/06/24 10:56:50;;;;;;;5.33;3.40;;;22.10;99.90;;;;;;4995221;28;20216;-77
2022/06/24 10:59:19;;;;;;;6.00;3.50;;;22.30;99.90;;;;;;4996441;28;20162;-77
2022/06/24 11:01:49;;;;;;;4.27;2.80;;;22.30;99.90;;;;;;4996321;28;20177;-78
2022/06/24 11:04:28;;;;;;;4.10;2.97;;;22.40;99.90;;;;;;4996446;28;20186;-77
2022/06/24 11:07:11;;;;;;;4.83;2.97;;;22.50;99.90;;;;;;4996206;28;20247;-77
2022/06/24 11:09:36;;;;;;;4.73;2.90;;;22.70;99.90;;;;;;4998728;28;20165;-77
2022/06/24 11:12:05;;;;;;;4.13;2.83;;;22.70;99.90;;;;;;4996397;28;20549;-78
2022/06/24 11:14:30;;;;;;;2.57;2.37;;;22.70;99.90;;;;;;4995940;28;20213;-76
2022/06/24 11:16:56;;;;;;;2.10;1.90;;;22.80;99.90;;;;;;4996552;28;20233;-78
2022/06/24 11:19:22;;;;;;;3.27;2.47;;;22.80;99.90;;;;;;4997187;28;20188;-79
2022/06/24 11:21:49;;;;;;;3.53;2.27;;;22.80;99.90;;;;;;4996907;28;20241;-78
2022/06/24 11:24:18;;;;;;;2.70;2.30;;;22.90;99.90;;;;;;4997061;28;20190;-79
2022/06/24 11:27:03;;;;;;;3.73;2.70;;;22.80;99.90;;;;;;4997290;28;20245;-79
2022/06/24 11:29:47;;;;;;;3.73;2.30;;;22.70;99.90;;;;;;4996781;28;20170;-78
2022/06/24 11:32:12;;;;;;;4.47;2.73;;;22.70;99.90;;;;;;4995312;28;20320;-79
2022/06/24 11:34:38;;;;;;;4.40;2.27;;;22.50;99.90;;;;;;4995592;28;20198;-79
2022/06/24 11:37:04;;;;;;;3.87;2.80;;;22.50;99.90;;;;;;4995804;28;20201;-79
2022/06/24 11:39:32;;;;;;;3.80;3.00;;;22.40;99.90;;;;;;4997382;28;20178;-79
2022/06/24 11:41:57;;;;;;;5.33;3.30;;;22.40;99.90;;;;;;4996188;28;20719;-80
2022/06/24 11:44:37;;;;;;;5.13;3.13;;;22.50;99.90;;;;;;4997120;28;20224;-80
2022/06/24 11:47:05;;;;;;;4.73;4.00;;;22.50;99.90;;;;;;4997518;28;20177;-80
2022/06/24 11:49:34;;;;;;;4.53;3.93;;;22.50;99.90;;;;;;4997272;28;20213;-80
2022/06/24 11:52:01;;;;;;;3.80;3.40;;;22.60;99.90;;;;;;4997003;28;20177;-79
2022/06/24 11:54:30;;;;;;;5.37;4.23;;;22.80;99.90;;;;;;4996808;28;20186;-79
2022/06/24 11:56:57;;;;;;;5.70;3.93;;;22.90;99.90;;;;;;4996654;28;20193;-79
2022/06/24 11:59:24;;;;;;;6.23;3.83;;;23.10;99.90;;;;;;4997990;28;20217;-79
2022/06/24 12:01:51;;;;;;;4.03;3.63;;;23.20;99.90;;;;;;5007889;28;20240;-79
2022/06/24 12:04:18;;;;;;;5.83;3.80;;;23.30;99.90;;;;;;4994881;28;20193;-79
2022/06/24 12:06:46;;;;;;;3.67;3.30;;;23.20;99.90;;;;;;4997721;28;20174;-78
2022/06/24 12:09:12;;;;;;;8.83;4.10;;;23.40;99.90;;;;;;4996472;28;20614;-79
2022/06/24 12:11:39;;;;;;;7.40;4.10;;;23.20;99.90;;;;;;4994959;28;20670;-79
2022/06/24 12:14:08;;;;;;;4.53;3.90;;;23.20;99.90;;;;;;4994517;28;20213;-80
2022/06/24 12:16:57;;;;;;;7.07;3.77;;;23.10;99.90;;;;;;4996379;28;20305;-79
2022/06/24 12:19:26;;;;;;;4.90;3.70;;;23.20;99.90;;;;;;4996315;28;20220;-80
2022/06/24 12:22:04;;;;;;;4.30;3.90;;;23.40;99.90;;;;;;4996136;28;20177;-79
2022/06/24 12:24:29;;;;;;;5.43;3.33;;;23.50;99.90;;;;;;4996497;28;20239;-79
2022/06/24 12:26:57;;;;;;;5.67;4.13;;;23.60;99.90;;;;;;4994402;28;20264;-79
2022/06/24 12:29:31;;;;;;;3.90;3.40;;;23.50;99.90;;;;;;4995727;28;20613;-79
2022/06/24 12:31:58;;;;;;;4.47;3.93;;;23.40;99.90;;;;;;4995551;28;20181;-80
2022/06/24 12:34:28;;;;;;;5.20;4.70;;;23.40;99.90;;;;;;4996197;28;20340;-80
2022/06/24 12:36:59;;;;;;;5.03;3.60;;;23.40;99.90;;;;;;4995861;28;20197;-79
2022/06/24 12:39:30;;;;;;;4.67;4.17;;;23.50;99.90;;;;;;4995632;28;20170;-80
2022/06/24 12:41:56;;;;;;;4.73;4.33;;;23.50;99.90;;;;;;4994640;28;20174;-80
2022/06/24 12:44:23;;;;;;;5.73;3.73;;;23.50;99.90;;;;;;4994227;28;20201;-79
2022/06/24 12:52:34;;;;;;;9.40;4.80;;;24.10;99.90;;;;;;4996008;28;20174;-79
2022/06/24 12:55:00;;;;;;;5.40;4.50;;;24.10;99.90;;;;;;4994825;28;20259;-79
2022/06/24 12:57:26;;;;;;;6.10;4.40;;;24.20;99.90;;;;;;4994768;28;20205;-79
2022/06/24 12:59:51;;;;;;;5.80;3.80;;;24.30;99.90;;;;;;4997646;28;20248;-79
2022/06/24 13:02:17;;;;;;;5.17;4.00;;;24.50;99.90;;;;;;5000078;28;20185;-81